createdAt,value
2022-11-11T00:01:47.204Z,49.55
2022-11-11T00:04:12.750Z,49.80
2022-11-11T00:06:38.337Z,49.64
2022-11-11T00:09:03.938Z,49.63
2022-11-11T00:11:29.494Z,49.63
2022-11-11T00:13:55.040Z,49.56
2022-11-11T00:16:20.825Z,49.46
2022-11-11T00:19:06.473Z,49.36
2022-11-11T00:21:52.113Z,49.70
2022-11-11T00:24:39.937Z,49.74
2022-11-11T00:27:06.154Z,49.44
2022-11-11T00:29:31.796Z,49.83
2022-11-11T00:32:17.273Z,49.57
2022-11-11T00:35:02.726Z,49.54
2022-11-11T00:37:28.267Z,49.60
2022-11-11T00:39:53.881Z,49.55
2022-11-11T00:42:19.435Z,49.59
2022-11-11T00:44:44.999Z,49.56
2022-11-11T00:47:30.525Z,49.40
2022-11-11T00:50:16.008Z,49.49
2022-11-11T00:52:44.040Z,49.72
2022-11-11T00:55:09.719Z,49.54
2022-11-11T00:57:35.306Z,49.49
2022-11-11T01:00:00.910Z,49.50
2022-11-11T01:02:26.598Z,49.72
2022-11-11T01:04:52.194Z,49.58
2022-11-11T01:07:17.836Z,49.65
2022-11-11T01:09:43.436Z,49.37
2022-11-11T01:12:09.109Z,49.62
2022-11-11T01:14:34.780Z,49.41
2022-11-11T01:17:00.380Z,49.55
2022-11-11T01:19:26.018Z,49.63
2022-11-11T01:21:51.581Z,49.42
2022-11-11T01:24:17.312Z,49.58
2022-11-11T01:26:42.877Z,49.55
2022-11-11T01:29:08.494Z,49.55
2022-11-11T01:31:34.192Z,49.44
2022-11-11T01:33:59.819Z,49.63
2022-11-11T01:36:26.340Z,49.47
2022-11-11T01:38:53.006Z,49.71
2022-11-11T01:41:40.359Z,49.66
2022-11-11T01:44:17.403Z,49.58
2022-11-11T01:46:43.892Z,49.53
2022-11-11T01:51:54.359Z,49.40
2022-11-11T01:54:21.460Z,49.51
2022-11-11T01:56:48.876Z,49.55
2022-11-11T01:59:16.399Z,49.54
2022-11-11T02:01:42.173Z,49.59
2022-11-11T02:04:27.747Z,49.54
2022-11-11T02:06:55.489Z,49.50
2022-11-11T02:09:21.327Z,49.65
2022-11-11T02:12:06.788Z,49.57
2022-11-11T02:14:35.972Z,49.40
2022-11-11T02:17:02.336Z,49.50
2022-11-11T02:19:31.385Z,49.37
2022-11-11T02:21:58.754Z,49.46
2022-11-11T02:24:24.471Z,49.33
2022-11-11T02:26:54.202Z,49.38
2022-11-11T02:29:22.828Z,49.55
2022-11-11T02:31:48.365Z,49.32
2022-11-11T02:34:14.071Z,49.50
2022-11-11T02:36:39.727Z,49.44
2022-11-11T02:39:05.295Z,49.40
2022-11-11T02:41:50.730Z,49.58
2022-11-11T02:44:16.464Z,49.42
2022-11-11T02:46:42.046Z,49.40
2022-11-11T02:49:07.773Z,49.41
2022-11-11T02:51:33.561Z,49.51
2022-11-11T02:53:59.498Z,49.52
2022-11-11T02:56:45.274Z,49.39
2022-11-11T02:59:10.900Z,49.51
2022-11-11T03:01:36.636Z,49.53
2022-11-11T03:04:02.420Z,49.48
2022-11-11T03:06:28.223Z,49.65
2022-11-11T03:08:53.896Z,49.65
2022-11-11T03:11:27.097Z,49.60
2022-11-11T03:13:53.612Z,49.50
2022-11-11T03:16:39.251Z,49.41
2022-11-11T03:19:05.022Z,49.40
2022-11-11T03:24:16.103Z,49.49
2022-11-11T03:26:41.643Z,49.44
2022-11-11T03:29:07.195Z,49.40
2022-11-11T03:31:32.736Z,49.45
2022-11-11T03:34:17.305Z,49.45
2022-11-11T03:37:03.517Z,49.58
2022-11-11T03:39:29.242Z,49.44
2022-11-11T03:41:56.350Z,49.59
2022-11-11T03:44:21.899Z,49.61
2022-11-11T03:46:47.436Z,49.46
2022-11-11T03:49:12.988Z,49.36
2022-11-11T03:51:38.532Z,49.48
2022-11-11T03:54:04.079Z,49.42
2022-11-11T03:56:29.634Z,49.60
2022-11-11T03:58:55.180Z,49.48
2022-11-11T04:01:40.667Z,49.45
2022-11-11T04:04:27.236Z,49.41
2022-11-11T04:07:12.720Z,49.44
2022-11-11T04:09:58.205Z,49.57
2022-11-11T04:12:23.745Z,49.54
2022-11-11T04:15:09.201Z,49.46
2022-11-11T04:17:34.739Z,49.26
2022-11-11T04:20:20.196Z,49.47
2022-11-11T04:22:45.737Z,49.44
2022-11-11T04:25:31.189Z,49.41
2022-11-11T04:28:16.636Z,49.37
2022-11-11T04:30:42.373Z,49.49
2022-11-11T04:33:07.952Z,49.31
2022-11-11T04:35:33.540Z,49.41
2022-11-11T04:38:18.985Z,49.50
2022-11-11T04:41:04.442Z,49.56
2022-11-11T04:43:30.445Z,49.45
2022-11-11T04:45:59.476Z,49.53
2022-11-11T04:48:25.013Z,49.50
2022-11-11T04:50:50.574Z,49.42
2022-11-11T04:53:16.112Z,49.62
2022-11-11T04:56:02.383Z,49.38
2022-11-11T04:58:30.188Z,49.54
2022-11-11T05:00:55.777Z,49.50
2022-11-11T05:03:24.589Z,49.38
2022-11-11T05:06:12.297Z,49.33
2022-11-11T05:08:58.940Z,49.45
2022-11-11T05:11:25.448Z,49.33
2022-11-11T05:14:11.207Z,49.31
2022-11-11T05:16:58.052Z,49.36
2022-11-11T05:19:43.499Z,49.37
2022-11-11T05:22:18.323Z,49.43
2022-11-11T05:25:03.957Z,49.37
2022-11-11T05:27:29.499Z,49.37
2022-11-11T05:29:55.097Z,49.29
2022-11-11T05:32:21.351Z,49.33
2022-11-11T05:34:47.044Z,49.40
2022-11-11T05:37:12.800Z,49.36
2022-11-11T05:39:38.342Z,49.39
2022-11-11T05:42:04.022Z,49.37
2022-11-11T05:44:29.574Z,49.54
2022-11-11T05:46:55.126Z,49.59
2022-11-11T05:49:20.675Z,49.47
2022-11-11T05:51:46.374Z,49.33
2022-11-11T05:54:12.334Z,49.56
2022-11-11T05:56:38.007Z,49.42
2022-11-11T05:59:03.868Z,49.59
2022-11-11T06:01:29.448Z,49.43
2022-11-11T06:03:55.033Z,49.52
2022-11-11T06:06:20.590Z,49.43
2022-11-11T06:08:46.130Z,49.26
2022-11-11T06:11:11.691Z,49.48
2022-11-11T06:13:37.241Z,49.53
2022-11-11T06:16:03.265Z,49.37
2022-11-11T06:18:31.309Z,49.52
2022-11-11T06:20:57.616Z,49.46
2022-11-11T06:23:23.952Z,49.39
2022-11-11T06:26:09.556Z,49.58
2022-11-11T06:28:35.150Z,49.48
2022-11-11T06:31:00.849Z,49.46
2022-11-11T06:33:26.885Z,49.58
2022-11-11T06:35:52.687Z,49.36
2022-11-11T06:38:18.403Z,49.50
2022-11-11T06:40:44.034Z,49.40
2022-11-11T06:43:09.682Z,49.36
2022-11-11T06:45:35.470Z,49.36
2022-11-11T06:48:02.535Z,49.38
2022-11-11T06:50:29.029Z,49.46
2022-11-11T06:52:54.927Z,49.41
2022-11-11T06:55:20.571Z,49.40
2022-11-11T06:57:46.120Z,49.55
2022-11-11T07:00:11.892Z,49.90
2022-11-11T07:02:37.429Z,50.74
2022-11-11T07:05:03.059Z,50.16
2022-11-11T07:07:28.622Z,49.97
2022-11-11T07:09:54.943Z,49.81
2022-11-11T07:12:20.842Z,49.77
2022-11-11T07:14:46.407Z,49.68
2022-11-11T07:17:11.947Z,49.70
2022-11-11T07:19:37.544Z,49.88
2022-11-11T07:22:03.182Z,49.69
2022-11-11T07:24:28.735Z,49.41
2022-11-11T07:26:54.278Z,49.87
2022-11-11T07:29:19.828Z,49.26
2022-11-11T07:31:45.372Z,48.54
2022-11-11T07:34:10.931Z,47.85
2022-11-11T07:36:36.479Z,48.88
2022-11-11T07:39:07.555Z,49.52
2022-11-11T07:41:34.360Z,49.70
2022-11-11T07:43:59.903Z,48.60
2022-11-11T07:46:25.457Z,48.05
2022-11-11T07:48:50.998Z,48.25
2022-11-11T07:51:16.552Z,47.90
2022-11-11T07:53:42.107Z,48.25
2022-11-11T07:56:07.647Z,48.89
2022-11-11T07:58:33.197Z,47.78
2022-11-11T08:01:01.224Z,48.12
2022-11-11T08:03:30.068Z,48.57
2022-11-11T08:05:55.620Z,48.57
2022-11-11T08:08:24.718Z,49.24
2022-11-11T08:10:52.885Z,47.44
2022-11-11T08:13:38.328Z,47.70
2022-11-11T08:16:06.078Z,47.87
2022-11-11T08:18:31.927Z,48.85
2022-11-11T08:20:57.479Z,48.07
2022-11-11T08:24:10.322Z,47.58
2022-11-11T08:26:17.949Z,48.56
2022-11-11T08:28:43.561Z,49.07
2022-11-11T08:31:09.476Z,48.50
2022-11-11T08:33:35.526Z,48.38
2022-11-11T08:36:01.524Z,49.24
2022-11-11T08:38:27.234Z,48.23
2022-11-11T08:40:52.790Z,48.70
2022-11-11T08:43:18.368Z,47.96
2022-11-11T08:45:43.919Z,48.05
2022-11-11T08:48:09.475Z,48.01
2022-11-11T08:50:38.187Z,48.01
2022-11-11T08:53:03.954Z,49.28
2022-11-11T08:55:29.640Z,48.52
2022-11-11T08:57:56.673Z,47.46
2022-11-11T09:00:23.193Z,49.09
2022-11-11T09:02:57.829Z,48.30
2022-11-11T09:21:36.940Z,49.13
2022-11-11T09:24:02.710Z,49.18
2022-11-11T09:26:28.252Z,48.29
2022-11-11T09:28:53.804Z,48.14
2022-11-11T09:34:06.015Z,47.71
2022-11-11T09:36:31.987Z,47.66
2022-11-11T09:38:57.621Z,47.48
2022-11-11T09:41:28.237Z,47.40
2022-11-11T09:43:54.779Z,47.30
2022-11-11T09:46:23.450Z,47.48
2022-11-11T09:48:57.268Z,47.01
2022-11-11T09:51:24.073Z,47.06
2022-11-11T09:53:51.500Z,47.13
2022-11-11T09:56:30.915Z,47.26
2022-11-11T09:59:01.261Z,47.29
2022-11-11T10:01:27.336Z,48.84
2022-11-11T10:04:01.689Z,48.78
2022-11-11T10:06:28.138Z,47.78
2022-11-11T10:09:01.443Z,49.01
2022-11-11T10:11:46.894Z,48.99
2022-11-11T10:14:12.443Z,47.68
2022-11-11T10:16:55.212Z,47.42
2022-11-11T10:19:29.410Z,47.57
2022-11-11T10:22:12.170Z,47.51
2022-11-11T10:24:44.636Z,48.85
2022-11-11T10:27:13.572Z,47.73
2022-11-11T10:29:40.133Z,48.23
2022-11-11T10:32:11.007Z,48.77
2022-11-11T10:34:36.572Z,48.80
2022-11-11T10:37:02.609Z,48.72
2022-11-11T10:39:32.465Z,48.51
2022-11-11T10:41:58.073Z,47.91
2022-11-11T10:44:25.597Z,47.63
2022-11-11T10:47:00.603Z,48.89
2022-11-11T10:49:27.076Z,49.17
2022-11-11T10:51:55.620Z,48.63
2022-11-11T10:54:25.787Z,47.74
2022-11-11T10:56:55.679Z,47.74
2022-11-11T10:59:24.115Z,48.76
2022-11-11T11:01:52.066Z,49.07
2022-11-11T11:04:20.407Z,48.82
2022-11-11T11:06:46.364Z,48.27
2022-11-11T11:09:14.324Z,48.85
2022-11-11T11:11:42.203Z,49.06
2022-11-11T11:14:09.928Z,48.92
2022-11-11T11:16:36.757Z,48.68
2022-11-11T11:19:18.075Z,48.74
2022-11-11T11:21:51.859Z,49.05
2022-11-11T11:24:33.187Z,47.73
2022-11-11T11:26:59.667Z,48.06
2022-11-11T11:29:26.315Z,47.58
2022-11-11T11:31:51.881Z,47.37
2022-11-11T11:34:17.449Z,48.53
2022-11-11T11:36:43.067Z,47.93
2022-11-11T11:39:08.627Z,48.84
2022-11-11T11:41:42.417Z,48.27
2022-11-11T11:44:27.898Z,48.76
2022-11-11T11:46:54.910Z,47.88
2022-11-11T11:49:27.003Z,47.78
2022-11-11T11:51:57.239Z,48.92
2022-11-11T11:54:25.977Z,48.67
2022-11-11T11:56:52.105Z,47.79
2022-11-11T11:59:22.338Z,48.10
2022-11-11T12:01:53.908Z,47.67
2022-11-11T12:04:33.895Z,48.03
2022-11-11T12:07:19.377Z,47.81
2022-11-11T12:10:04.858Z,47.70
2022-11-11T12:12:34.526Z,48.17
2022-11-11T12:15:06.049Z,47.95
2022-11-11T12:17:33.893Z,47.86
2022-11-11T12:20:02.592Z,47.98
2022-11-11T12:22:33.722Z,47.87
2022-11-11T12:25:11.818Z,48.84
2022-11-11T12:27:38.722Z,46.83
2022-11-11T12:30:13.564Z,47.87
2022-11-11T12:35:24.294Z,48.56
2022-11-11T12:40:48.718Z,48.59
2022-11-11T12:43:17.722Z,48.63
2022-11-11T12:45:46.929Z,48.80
2022-11-11T12:48:31.011Z,48.71
2022-11-11T12:51:05.690Z,48.86
2022-11-11T12:53:34.768Z,47.70
2022-11-11T12:56:04.125Z,46.45
2022-11-11T12:58:42.213Z,43.17
2022-11-11T13:01:17.932Z,45.61
2022-11-11T13:04:03.501Z,46.79
2022-11-11T13:06:38.106Z,47.39
2022-11-11T13:09:09.138Z,47.45
2022-11-11T13:11:54.284Z,47.31
2022-11-11T13:14:37.757Z,46.00
2022-11-11T13:17:04.091Z,45.77
2022-11-11T13:19:39.556Z,45.78
2022-11-11T13:22:07.450Z,45.29
2022-11-11T13:24:33.098Z,45.21
2022-11-11T13:27:00.548Z,46.25
2022-11-11T13:29:34.833Z,45.89
2022-11-11T13:32:00.431Z,45.45
2022-11-11T13:34:25.984Z,45.80
2022-11-11T13:36:52.161Z,45.52
2022-11-11T13:39:21.619Z,45.98
2022-11-11T13:41:48.583Z,45.86
2022-11-11T13:44:18.256Z,45.72
2022-11-11T13:46:47.213Z,45.38
2022-11-11T13:49:35.390Z,45.39
2022-11-11T13:52:01.748Z,45.75
2022-11-11T13:54:35.120Z,45.70
2022-11-11T13:57:20.622Z,45.86
2022-11-11T13:59:56.723Z,45.66
2022-11-11T14:02:25.940Z,46.13
2022-11-11T14:05:11.460Z,46.03
2022-11-11T14:07:46.913Z,45.85
2022-11-11T14:12:51.993Z,47.72
2022-11-11T14:15:37.015Z,46.87
2022-11-11T14:18:03.331Z,46.55
2022-11-11T14:20:35.378Z,46.45
2022-11-11T14:23:20.794Z,46.37
2022-11-11T14:25:47.860Z,46.78
2022-11-11T14:28:29.220Z,46.72
2022-11-11T14:30:55.712Z,47.19
2022-11-11T14:33:23.682Z,47.03
2022-11-11T14:35:55.331Z,46.99
2022-11-11T14:38:27.480Z,47.89
2022-11-11T14:40:53.019Z,46.42
2022-11-11T14:43:34.721Z,46.52
2022-11-11T14:46:02.571Z,46.20
2022-11-11T14:48:48.009Z,46.26
2022-11-11T14:51:33.428Z,46.30
2022-11-11T14:53:58.985Z,46.55
2022-11-11T14:56:24.527Z,46.69
2022-11-11T14:58:50.084Z,46.67
2022-11-11T15:01:17.136Z,46.46
2022-11-11T15:03:44.231Z,46.70
2022-11-11T15:06:13.217Z,46.53
2022-11-11T15:08:41.646Z,46.49
2022-11-11T15:11:27.134Z,46.43
2022-11-11T15:13:58.411Z,46.51
2022-11-11T15:16:30.116Z,46.51
2022-11-11T15:19:05.555Z,46.45
2022-11-11T15:21:35.551Z,46.36
2022-11-11T15:24:03.663Z,46.66
2022-11-11T15:26:47.296Z,46.64
2022-11-11T15:29:17.159Z,46.66
2022-11-11T15:31:49.933Z,46.42
2022-11-11T15:34:35.369Z,46.54
2022-11-11T15:37:05.052Z,46.44
2022-11-11T15:39:41.212Z,46.53
2022-11-11T15:42:10.630Z,46.41
2022-11-11T15:44:36.192Z,46.49
2022-11-11T15:47:01.732Z,46.40
2022-11-11T15:49:43.911Z,46.51
2022-11-11T15:52:22.886Z,46.29
2022-11-11T15:54:48.833Z,46.50
2022-11-11T15:57:15.312Z,46.52
2022-11-11T15:59:40.998Z,46.58
2022-11-11T16:02:07.818Z,46.36
2022-11-11T16:04:54.885Z,46.42
2022-11-11T16:07:20.166Z,46.44
2022-11-11T16:09:45.772Z,46.44
2022-11-11T16:12:11.320Z,46.45
2022-11-11T16:14:40.012Z,46.56
2022-11-11T16:17:05.774Z,46.45
2022-11-11T16:19:34.725Z,46.63
2022-11-11T16:22:03.716Z,46.59
2022-11-11T16:24:33.289Z,46.58
2022-11-11T16:27:00.434Z,46.57
2022-11-11T16:29:27.318Z,46.42
2022-11-11T16:31:52.863Z,46.36
2022-11-11T16:34:33.729Z,46.51
2022-11-11T16:37:03.289Z,46.66
2022-11-11T16:39:28.912Z,46.54
2022-11-11T16:41:54.791Z,46.57
2022-11-11T16:44:28.140Z,46.40
2022-11-11T16:46:53.676Z,46.69
2022-11-11T16:49:20.714Z,46.49
2022-11-11T16:51:46.585Z,46.40
2022-11-11T16:54:13.365Z,46.51
2022-11-11T16:56:41.420Z,46.42
2022-11-11T16:59:09.208Z,46.59
2022-11-11T17:01:42.528Z,46.82
2022-11-11T17:04:08.264Z,46.63
2022-11-11T17:06:54.785Z,46.52
2022-11-11T17:09:36.776Z,46.46
2022-11-11T17:12:02.322Z,46.59
2022-11-11T17:14:28.856Z,46.60
2022-11-11T17:16:54.409Z,46.80
2022-11-11T17:19:20.862Z,46.62
2022-11-11T17:21:46.849Z,46.50
2022-11-11T17:24:13.753Z,46.60
2022-11-11T17:26:39.601Z,46.66
2022-11-11T17:29:05.731Z,46.50
2022-11-11T17:31:31.274Z,47.02
2022-11-11T17:33:56.838Z,46.60
2022-11-11T17:36:22.376Z,46.60
2022-11-11T17:38:47.925Z,46.43
2022-11-11T17:41:13.672Z,46.62
2022-11-11T17:43:39.269Z,46.50
2022-11-11T17:46:04.843Z,46.54
2022-11-11T17:48:30.436Z,46.42
2022-11-11T17:50:56.173Z,46.61
2022-11-11T17:53:21.713Z,46.44
2022-11-11T17:55:47.307Z,46.77
2022-11-11T17:58:13.077Z,46.86
2022-11-11T18:00:39.948Z,46.63
2022-11-11T18:03:05.786Z,46.63
2022-11-11T18:05:32.853Z,46.74
2022-11-11T18:07:58.396Z,46.74
2022-11-11T18:10:23.945Z,46.49
2022-11-11T18:12:49.494Z,46.52
2022-11-11T18:15:15.044Z,46.53
2022-11-11T18:17:40.580Z,46.29
2022-11-11T18:20:06.451Z,46.70
2022-11-11T18:22:31.997Z,46.58
2022-11-11T18:24:57.565Z,46.78
2022-11-11T18:27:23.106Z,46.83
2022-11-11T18:29:48.658Z,46.59
2022-11-11T18:32:14.194Z,46.77
2022-11-11T18:34:39.824Z,46.67
2022-11-11T18:37:05.609Z,46.95
2022-11-11T18:39:31.166Z,46.87
2022-11-11T18:41:56.743Z,46.68
2022-11-11T18:44:22.299Z,46.57
2022-11-11T18:46:47.843Z,46.59
2022-11-11T18:49:13.438Z,46.62
2022-11-11T18:51:39.070Z,46.70
2022-11-11T18:54:04.697Z,46.80
2022-11-11T18:56:30.355Z,46.58
2022-11-11T18:58:56.774Z,47.71
2022-11-11T19:01:24.333Z,47.19
2022-11-11T19:03:54.713Z,47.02
2022-11-11T19:06:20.554Z,46.70
2022-11-11T19:08:46.322Z,47.25
2022-11-11T19:11:12.022Z,47.08
2022-11-11T19:13:37.575Z,46.85
2022-11-11T19:16:04.807Z,47.70
2022-11-11T19:18:30.366Z,46.87
2022-11-11T19:20:55.914Z,46.91
2022-11-11T19:23:21.453Z,46.66
2022-11-11T19:25:47.004Z,46.71
2022-11-11T19:28:12.545Z,46.70
2022-11-11T19:30:38.162Z,46.88
2022-11-11T19:33:03.705Z,47.84
2022-11-11T19:35:29.261Z,46.62
2022-11-11T19:37:54.802Z,46.63
2022-11-11T19:40:20.353Z,46.69
2022-11-11T19:42:47.327Z,46.82
2022-11-11T19:45:12.886Z,46.84
2022-11-11T19:47:38.427Z,46.97
2022-11-11T19:50:04.073Z,46.73
2022-11-11T19:52:29.614Z,47.10
2022-11-11T19:54:56.110Z,46.84
2022-11-11T19:57:21.654Z,46.77
2022-11-11T19:59:47.205Z,47.88
2022-11-11T20:02:12.745Z,46.66
2022-11-11T20:04:38.846Z,47.08
2022-11-11T20:07:04.437Z,46.77
2022-11-11T20:09:31.064Z,46.98
2022-11-11T20:11:56.603Z,47.12
2022-11-11T20:14:22.193Z,46.87
2022-11-11T20:16:49.366Z,46.52
2022-11-11T20:19:14.917Z,46.70
2022-11-11T20:21:43.539Z,46.77
2022-11-11T20:24:09.758Z,46.45
2022-11-11T20:26:35.325Z,46.63
2022-11-11T20:29:00.987Z,47.24
2022-11-11T20:31:27.452Z,47.55
2022-11-11T20:33:53.150Z,46.48
2022-11-11T20:36:18.880Z,46.66
2022-11-11T20:38:44.443Z,46.78
2022-11-11T20:41:12.260Z,46.82
2022-11-11T20:43:37.842Z,46.81
2022-11-11T20:46:04.255Z,46.60
2022-11-11T20:48:29.812Z,47.23
2022-11-11T20:51:11.398Z,47.07
2022-11-11T20:53:37.033Z,47.66
2022-11-11T20:56:04.426Z,47.71
2022-11-11T20:58:31.335Z,46.96
2022-11-11T21:01:00.627Z,47.47
2022-11-11T21:03:26.423Z,46.89
2022-11-11T21:05:52.136Z,47.85
2022-11-11T21:08:17.690Z,47.65
2022-11-11T21:10:43.244Z,47.12
2022-11-11T21:13:08.798Z,48.27
2022-11-11T21:15:34.348Z,47.89
2022-11-11T21:18:00.666Z,46.86
2022-11-11T21:20:26.222Z,48.35
2022-11-11T21:22:51.767Z,47.15
2022-11-11T21:25:17.323Z,48.33
2022-11-11T21:27:42.879Z,48.19
2022-11-11T21:30:08.560Z,48.28
2022-11-11T21:32:34.111Z,47.08
2022-11-11T21:35:02.344Z,48.27
2022-11-11T21:37:28.294Z,47.75
2022-11-11T21:39:54.086Z,48.11
2022-11-11T21:42:19.624Z,47.96
2022-11-11T21:44:45.180Z,47.58
2022-11-11T21:47:11.835Z,48.08
2022-11-11T21:49:37.392Z,46.94
2022-11-11T21:52:02.931Z,48.33
2022-11-11T21:54:28.492Z,48.22
2022-11-11T21:56:54.261Z,47.58
2022-11-11T21:59:19.815Z,48.24
2022-11-11T22:01:45.500Z,48.30
2022-11-11T22:04:11.547Z,48.27
2022-11-11T22:06:37.437Z,48.29
2022-11-11T22:09:03.157Z,48.11
2022-11-11T22:11:29.967Z,48.01
2022-11-11T22:13:55.671Z,47.85
2022-11-11T22:16:21.999Z,47.83
2022-11-11T22:18:47.727Z,47.33
2022-11-11T22:21:19.415Z,48.30
2022-11-11T22:23:45.900Z,47.96
2022-11-11T22:26:11.609Z,48.29
2022-11-11T22:28:37.250Z,46.85
2022-11-11T22:31:04.831Z,48.23
2022-11-11T22:33:30.383Z,48.26
2022-11-11T22:35:57.992Z,47.95
2022-11-11T22:38:23.756Z,47.50
2022-11-11T22:40:49.607Z,47.75
2022-11-11T22:43:19.803Z,47.20
2022-11-11T22:45:58.381Z,48.20
2022-11-11T22:48:24.432Z,47.47
2022-11-11T22:50:50.311Z,47.87
2022-11-11T22:53:16.079Z,48.44
2022-11-11T22:55:41.623Z,47.87
2022-11-11T22:58:07.175Z,48.39
2022-11-11T23:00:32.725Z,47.06
2022-11-11T23:02:58.283Z,48.28
2022-11-11T23:05:23.852Z,48.32
2022-11-11T23:07:49.398Z,48.21
2022-11-11T23:10:15.066Z,48.23
2022-11-11T23:12:40.610Z,48.37
2022-11-11T23:15:06.388Z,48.20
2022-11-11T23:17:31.943Z,48.08
2022-11-11T23:19:57.501Z,47.71
2022-11-11T23:22:23.043Z,46.84
2022-11-11T23:24:48.591Z,48.25
2022-11-11T23:27:14.137Z,47.09
2022-11-11T23:29:39.691Z,48.24
2022-11-11T23:32:05.239Z,48.30
2022-11-11T23:34:30.798Z,47.92
2022-11-11T23:36:56.338Z,48.18
2022-11-11T23:39:21.888Z,48.37
2022-11-11T23:41:47.444Z,47.98
2022-11-11T23:44:12.994Z,48.28
2022-11-11T23:46:38.540Z,48.13
2022-11-11T23:49:04.095Z,47.46
2022-11-11T23:51:29.665Z,48.05
2022-11-11T23:53:55.223Z,47.08
2022-11-11T23:56:20.796Z,48.29
2022-11-11T23:58:46.351Z,48.44
